sensor_id;sensor_type;location;lat;lon;timestamp;temperature;humidity
15231;DHT22;32569;51.762;8.564;2023-05-01T00:02:09;8.80;93.50
15231;DHT22;32569;51.762;8.564;2023-05-01T00:04:36;8.80;93.50
15231;DHT22;32569;51.762;8.564;2023-05-01T00:07:04;8.70;93.80
15231;DHT22;32569;51.762;8.564;2023-05-01T00:09:30;8.50;94.10
15231;DHT22;32569;51.762;8.564;2023-05-01T00:11:57;8.50;94.30
15231;DHT22;32569;51.762;8.564;2023-05-01T00:14:24;8.60;94.20
15231;DHT22;32569;51.762;8.564;2023-05-01T00:16:51;8.80;93.60
15231;DHT22;32569;51.762;8.564;2023-05-01T00:19:17;8.90;93.40
15231;DHT22;32569;51.762;8.564;2023-05-01T00:21:44;8.80;93.60
15231;DHT22;32569;51.762;8.564;2023-05-01T00:24:13;8.60;93.80
15231;DHT22;32569;51.762;8.564;2023-05-01T00:26:40;8.60;93.90
15231;DHT22;32569;51.762;8.564;2023-05-01T00:29:16;8.60;94.20
15231;DHT22;32569;51.762;8.564;2023-05-01T00:31:43;8.60;94.00
15231;DHT22;32569;51.762;8.564;2023-05-01T00:34:10;8.50;94.00
15231;DHT22;32569;51.762;8.564;2023-05-01T00:36:36;8.50;94.30
15231;DHT22;32569;51.762;8.564;2023-05-01T00:39:03;8.60;94.40
15231;DHT22;32569;51.762;8.564;2023-05-01T00:41:31;8.50;94.50
15231;DHT22;32569;51.762;8.564;2023-05-01T00:43:58;8.50;94.30
15231;DHT22;32569;51.762;8.564;2023-05-01T00:46:25;8.50;94.50
15231;DHT22;32569;51.762;8.564;2023-05-01T00:48:54;8.50;94.60
15231;DHT22;32569;51.762;8.564;2023-05-01T00:51:21;8.30;95.00
15231;DHT22;32569;51.762;8.564;2023-05-01T00:53:47;8.30;95.00
15231;DHT22;32569;51.762;8.564;2023-05-01T00:56:14;8.40;94.90
15231;DHT22;32569;51.762;8.564;2023-05-01T00:58:44;8.40;94.80
15231;DHT22;32569;51.762;8.564;2023-05-01T01:01:12;8.30;95.10
15231;DHT22;32569;51.762;8.564;2023-05-01T01:03:41;8.30;94.80
15231;DHT22;32569;51.762;8.564;2023-05-01T01:06:15;8.50;94.70
15231;DHT22;32569;51.762;8.564;2023-05-01T01:08:51;8.50;94.60
15231;DHT22;32569;51.762;8.564;2023-05-01T01:11:28;8.40;94.50
15231;DHT22;32569;51.762;8.564;2023-05-01T01:14:07;8.40;94.60
15231;DHT22;32569;51.762;8.564;2023-05-01T01:16:38;8.40;94.80
15231;DHT22;32569;51.762;8.564;2023-05-01T01:19:32;8.30;95.00
15231;DHT22;32569;51.762;8.564;2023-05-01T01:22:09;8.30;95.00
15231;DHT22;32569;51.762;8.564;2023-05-01T01:24:55;8.30;95.00
15231;DHT22;32569;51.762;8.564;2023-05-01T01:31:14;8.30;95.10
15231;DHT22;32569;51.762;8.564;2023-05-01T01:33:54;8.20;95.00
15231;DHT22;32569;51.762;8.564;2023-05-01T01:36:39;8.20;95.20
15231;DHT22;32569;51.762;8.564;2023-05-01T01:39:12;8.30;95.40
15231;DHT22;32569;51.762;8.564;2023-05-01T01:41:42;8.30;95.30
15231;DHT22;32569;51.762;8.564;2023-05-01T01:44:15;8.30;95.40
15231;DHT22;32569;51.762;8.564;2023-05-01T01:46:47;8.30;95.40
15231;DHT22;32569;51.762;8.564;2023-05-01T01:49:20;8.20;95.60
15231;DHT22;32569;51.762;8.564;2023-05-01T01:51:49;8.30;95.50
15231;DHT22;32569;51.762;8.564;2023-05-01T01:54:23;8.30;95.40
15231;DHT22;32569;51.762;8.564;2023-05-01T01:56:52;8.10;95.70
15231;DHT22;32569;51.762;8.564;2023-05-01T01:59:21;8.10;95.60
15231;DHT22;32569;51.762;8.564;2023-05-01T02:01:52;8.20;95.50
15231;DHT22;32569;51.762;8.564;2023-05-01T02:04:22;8.20;95.50
15231;DHT22;32569;51.762;8.564;2023-05-01T02:06:50;8.20;95.40
15231;DHT22;32569;51.762;8.564;2023-05-01T02:09:18;8.20;95.30
15231;DHT22;32569;51.762;8.564;2023-05-01T02:11:45;8.20;95.30
15231;DHT22;32569;51.762;8.564;2023-05-01T02:14:14;8.20;95.50
15231;DHT22;32569;51.762;8.564;2023-05-01T02:16:41;8.20;95.40
15231;DHT22;32569;51.762;8.564;2023-05-01T02:19:09;8.20;95.70
15231;DHT22;32569;51.762;8.564;2023-05-01T02:21:38;8.10;95.70
15231;DHT22;32569;51.762;8.564;2023-05-01T02:24:05;8.20;95.60
15231;DHT22;32569;51.762;8.564;2023-05-01T02:26:39;8.20;95.60
15231;DHT22;32569;51.762;8.564;2023-05-01T02:29:06;8.20;95.50
15231;DHT22;32569;51.762;8.564;2023-05-01T02:31:33;8.20;95.60
15231;DHT22;32569;51.762;8.564;2023-05-01T02:34:00;8.10;95.40
15231;DHT22;32569;51.762;8.564;2023-05-01T02:36:26;8.20;95.50
15231;DHT22;32569;51.762;8.564;2023-05-01T02:38:54;8.10;95.50
15231;DHT22;32569;51.762;8.564;2023-05-01T02:41:21;8.10;95.90
15231;DHT22;32569;51.762;8.564;2023-05-01T02:43:54;8.00;95.60
15231;DHT22;32569;51.762;8.564;2023-05-01T02:46:23;8.00;95.70
15231;DHT22;32569;51.762;8.564;2023-05-01T02:48:52;8.10;95.50
15231;DHT22;32569;51.762;8.564;2023-05-01T02:51:20;8.00;95.60
15231;DHT22;32569;51.762;8.564;2023-05-01T02:53:48;8.00;95.90
15231;DHT22;32569;51.762;8.564;2023-05-01T02:56:16;8.00;95.80
15231;DHT22;32569;51.762;8.564;2023-05-01T02:58:43;7.90;96.10
15231;DHT22;32569;51.762;8.564;2023-05-01T03:01:10;7.80;96.20
15231;DHT22;32569;51.762;8.564;2023-05-01T03:03:36;7.80;96.40
15231;DHT22;32569;51.762;8.564;2023-05-01T03:06:04;7.90;96.00
15231;DHT22;32569;51.762;8.564;2023-05-01T03:08:30;8.00;95.70
15231;DHT22;32569;51.762;8.564;2023-05-01T03:10:57;8.00;95.70
15231;DHT22;32569;51.762;8.564;2023-05-01T03:13:25;8.00;96.00
15231;DHT22;32569;51.762;8.564;2023-05-01T03:15:52;7.90;95.90
15231;DHT22;32569;51.762;8.564;2023-05-01T03:18:18;7.80;96.30
15231;DHT22;32569;51.762;8.564;2023-05-01T03:20:54;7.80;96.10
15231;DHT22;32569;51.762;8.564;2023-05-01T03:23:22;7.70;96.30
15231;DHT22;32569;51.762;8.564;2023-05-01T03:25:49;7.70;96.20
15231;DHT22;32569;51.762;8.564;2023-05-01T03:28:16;7.80;95.90
15231;DHT22;32569;51.762;8.564;2023-05-01T03:30:44;7.90;95.80
15231;DHT22;32569;51.762;8.564;2023-05-01T03:33:11;7.90;95.80
15231;DHT22;32569;51.762;8.564;2023-05-01T03:35:37;7.80;95.90
15231;DHT22;32569;51.762;8.564;2023-05-01T03:38:04;7.70;95.90
15231;DHT22;32569;51.762;8.564;2023-05-01T03:40:34;7.80;95.60
15231;DHT22;32569;51.762;8.564;2023-05-01T03:43:01;7.70;95.80
15231;DHT22;32569;51.762;8.564;2023-05-01T03:45:27;7.80;95.80
15231;DHT22;32569;51.762;8.564;2023-05-01T03:47:55;7.80;95.80
15231;DHT22;32569;51.762;8.564;2023-05-01T03:50:23;7.80;95.90
15231;DHT22;32569;51.762;8.564;2023-05-01T03:52:49;7.80;95.80
15231;DHT22;32569;51.762;8.564;2023-05-01T03:55:16;7.80;95.80
15231;DHT22;32569;51.762;8.564;2023-05-01T03:57:43;7.80;95.80
15231;DHT22;32569;51.762;8.564;2023-05-01T04:00:12;7.70;96.10
15231;DHT22;32569;51.762;8.564;2023-05-01T04:02:39;7.70;96.10
15231;DHT22;32569;51.762;8.564;2023-05-01T04:05:07;7.70;96.30
15231;DHT22;32569;51.762;8.564;2023-05-01T04:07:34;7.60;96.40
15231;DHT22;32569;51.762;8.564;2023-05-01T04:10:01;7.70;96.20
15231;DHT22;32569;51.762;8.564;2023-05-01T04:12:29;7.70;96.20
15231;DHT22;32569;51.762;8.564;2023-05-01T04:14:55;7.60;96.40
15231;DHT22;32569;51.762;8.564;2023-05-01T04:17:22;7.70;96.20
15231;DHT22;32569;51.762;8.564;2023-05-01T04:19:49;7.70;96.50
15231;DHT22;32569;51.762;8.564;2023-05-01T04:22:18;7.60;96.60
15231;DHT22;32569;51.762;8.564;2023-05-01T04:24:44;7.60;96.40
15231;DHT22;32569;51.762;8.564;2023-05-01T04:27:11;7.70;96.50
15231;DHT22;32569;51.762;8.564;2023-05-01T04:29:37;7.80;96.30
15231;DHT22;32569;51.762;8.564;2023-05-01T04:32:06;7.80;96.30
15231;DHT22;32569;51.762;8.564;2023-05-01T04:34:32;7.90;96.10
15231;DHT22;32569;51.762;8.564;2023-05-01T04:36:59;7.90;96.00
15231;DHT22;32569;51.762;8.564;2023-05-01T04:39:28;8.00;96.20
15231;DHT22;32569;51.762;8.564;2023-05-01T04:41:55;8.00;96.20
15231;DHT22;32569;51.762;8.564;2023-05-01T04:44:22;8.00;96.60
15231;DHT22;32569;51.762;8.564;2023-05-01T04:46:48;8.30;96.10
15231;DHT22;32569;51.762;8.564;2023-05-01T04:49:15;8.30;96.20
15231;DHT22;32569;51.762;8.564;2023-05-01T04:51:42;8.50;95.70
15231;DHT22;32569;51.762;8.564;2023-05-01T04:54:08;8.70;95.20
15231;DHT22;32569;51.762;8.564;2023-05-01T04:56:36;8.70;95.40
15231;DHT22;32569;51.762;8.564;2023-05-01T04:59:03;8.60;95.70
15231;DHT22;32569;51.762;8.564;2023-05-01T05:01:30;8.50;95.50
15231;DHT22;32569;51.762;8.564;2023-05-01T05:03:56;8.60;95.50
15231;DHT22;32569;51.762;8.564;2023-05-01T05:06:23;8.60;95.40
15231;DHT22;32569;51.762;8.564;2023-05-01T05:08:49;8.80;95.70
15231;DHT22;32569;51.762;8.564;2023-05-01T05:11:17;8.90;95.30
15231;DHT22;32569;51.762;8.564;2023-05-01T05:13:45;8.80;95.50
15231;DHT22;32569;51.762;8.564;2023-05-01T05:16:12;8.90;95.60
15231;DHT22;32569;51.762;8.564;2023-05-01T05:18:39;8.90;95.70
15231;DHT22;32569;51.762;8.564;2023-05-01T05:21:06;9.00;95.80
15231;DHT22;32569;51.762;8.564;2023-05-01T05:23:33;9.10;95.80
15231;DHT22;32569;51.762;8.564;2023-05-01T05:26:00;9.20;95.80
15231;DHT22;32569;51.762;8.564;2023-05-01T05:28:27;9.20;95.70
15231;DHT22;32569;51.762;8.564;2023-05-01T05:30:56;9.40;95.90
15231;DHT22;32569;51.762;8.564;2023-05-01T05:33:26;9.50;95.60
15231;DHT22;32569;51.762;8.564;2023-05-01T05:35:53;9.60;95.50
15231;DHT22;32569;51.762;8.564;2023-05-01T05:38:20;9.70;95.40
15231;DHT22;32569;51.762;8.564;2023-05-01T05:40:46;9.70;95.60
15231;DHT22;32569;51.762;8.564;2023-05-01T05:43:13;9.80;95.40
15231;DHT22;32569;51.762;8.564;2023-05-01T05:45:40;9.80;95.80
15231;DHT22;32569;51.762;8.564;2023-05-01T05:48:08;9.90;95.20
15231;DHT22;32569;51.762;8.564;2023-05-01T05:50:34;9.80;95.30
15231;DHT22;32569;51.762;8.564;2023-05-01T05:53:01;9.90;95.20
15231;DHT22;32569;51.762;8.564;2023-05-01T05:55:27;10.00;95.40
15231;DHT22;32569;51.762;8.564;2023-05-01T05:57:54;10.10;94.90
15231;DHT22;32569;51.762;8.564;2023-05-01T06:00:21;10.20;95.20
15231;DHT22;32569;51.762;8.564;2023-05-01T06:02:48;10.30;94.80
15231;DHT22;32569;51.762;8.564;2023-05-01T06:05:16;10.40;95.10
15231;DHT22;32569;51.762;8.564;2023-05-01T06:07:43;10.40;94.70
15231;DHT22;32569;51.762;8.564;2023-05-01T06:10:10;10.50;94.40
15231;DHT22;32569;51.762;8.564;2023-05-01T06:12:36;10.70;94.70
15231;DHT22;32569;51.762;8.564;2023-05-01T06:15:04;10.80;94.70
15231;DHT22;32569;51.762;8.564;2023-05-01T06:17:31;10.90;94.60
15231;DHT22;32569;51.762;8.564;2023-05-01T06:19:58;10.90;94.20
15231;DHT22;32569;51.762;8.564;2023-05-01T06:22:27;11.00;94.20
15231;DHT22;32569;51.762;8.564;2023-05-01T06:24:54;11.10;94.10
15231;DHT22;32569;51.762;8.564;2023-05-01T06:27:21;11.10;93.90
15231;DHT22;32569;51.762;8.564;2023-05-01T06:29:47;11.10;93.70
15231;DHT22;32569;51.762;8.564;2023-05-01T06:32:15;11.10;93.70
15231;DHT22;32569;51.762;8.564;2023-05-01T06:34:42;11.20;93.90
15231;DHT22;32569;51.762;8.564;2023-05-01T06:37:09;11.30;93.60
15231;DHT22;32569;51.762;8.564;2023-05-01T06:39:37;11.20;93.50
15231;DHT22;32569;51.762;8.564;2023-05-01T06:42:03;11.20;93.80
15231;DHT22;32569;51.762;8.564;2023-05-01T06:44:31;11.30;93.80
15231;DHT22;32569;51.762;8.564;2023-05-01T06:46:57;11.30;93.90
15231;DHT22;32569;51.762;8.564;2023-05-01T06:49:26;11.40;94.10
15231;DHT22;32569;51.762;8.564;2023-05-01T06:51:52;11.40;94.20
15231;DHT22;32569;51.762;8.564;2023-05-01T06:54:19;11.50;94.10
15231;DHT22;32569;51.762;8.564;2023-05-01T06:56:47;11.50;94.10
15231;DHT22;32569;51.762;8.564;2023-05-01T06:59:13;11.50;93.80
15231;DHT22;32569;51.762;8.564;2023-05-01T07:01:40;11.60;94.10
15231;DHT22;32569;51.762;8.564;2023-05-01T07:04:07;11.60;94.10
15231;DHT22;32569;51.762;8.564;2023-05-01T07:06:34;11.70;94.20
15231;DHT22;32569;51.762;8.564;2023-05-01T07:09:00;11.80;94.00
15231;DHT22;32569;51.762;8.564;2023-05-01T07:11:27;12.00;93.40
15231;DHT22;32569;51.762;8.564;2023-05-01T07:13:55;12.00;93.10
15231;DHT22;32569;51.762;8.564;2023-05-01T07:16:22;12.10;93.10
15231;DHT22;32569;51.762;8.564;2023-05-01T07:18:49;12.30;93.10
15231;DHT22;32569;51.762;8.564;2023-05-01T07:21:15;12.30;92.80
15231;DHT22;32569;51.762;8.564;2023-05-01T07:23:42;12.40;92.90
15231;DHT22;32569;51.762;8.564;2023-05-01T07:26:09;12.50;92.80
15231;DHT22;32569;51.762;8.564;2023-05-01T07:28:35;12.60;92.80
15231;DHT22;32569;51.762;8.564;2023-05-01T07:31:04;12.60;93.00
15231;DHT22;32569;51.762;8.564;2023-05-01T07:33:31;12.70;92.70
15231;DHT22;32569;51.762;8.564;2023-05-01T07:35:57;12.80;92.30
15231;DHT22;32569;51.762;8.564;2023-05-01T07:38:24;12.80;92.60
15231;DHT22;32569;51.762;8.564;2023-05-01T07:40:51;12.80;92.80
15231;DHT22;32569;51.762;8.564;2023-05-01T07:43:18;12.80;92.70
15231;DHT22;32569;51.762;8.564;2023-05-01T07:45:53;12.90;92.70
15231;DHT22;32569;51.762;8.564;2023-05-01T07:48:23;13.00;92.50
15231;DHT22;32569;51.762;8.564;2023-05-01T07:50:49;13.10;92.80
15231;DHT22;32569;51.762;8.564;2023-05-01T07:53:16;13.20;93.00
15231;DHT22;32569;51.762;8.564;2023-05-01T07:55:43;13.20;92.70
15231;DHT22;32569;51.762;8.564;2023-05-01T07:58:09;13.20;92.90
15231;DHT22;32569;51.762;8.564;2023-05-01T08:00:36;13.30;93.00
15231;DHT22;32569;51.762;8.564;2023-05-01T08:03:03;13.20;92.80
15231;DHT22;32569;51.762;8.564;2023-05-01T08:05:31;13.20;92.90
15231;DHT22;32569;51.762;8.564;2023-05-01T08:07:58;13.20;92.90
15231;DHT22;32569;51.762;8.564;2023-05-01T08:10:24;13.40;92.90
15231;DHT22;32569;51.762;8.564;2023-05-01T08:12:52;13.40;93.20
15231;DHT22;32569;51.762;8.564;2023-05-01T08:15:19;13.50;93.80
15231;DHT22;32569;51.762;8.564;2023-05-01T08:17:46;13.60;93.40
15231;DHT22;32569;51.762;8.564;2023-05-01T08:20:13;13.60;92.90
15231;DHT22;32569;51.762;8.564;2023-05-01T08:22:41;13.80;93.40
15231;DHT22;32569;51.762;8.564;2023-05-01T08:25:07;13.90;92.90
15231;DHT22;32569;51.762;8.564;2023-05-01T08:27:37;13.90;93.40
15231;DHT22;32569;51.762;8.564;2023-05-01T08:30:05;14.00;92.70
15231;DHT22;32569;51.762;8.564;2023-05-01T08:32:31;14.00;93.10
15231;DHT22;32569;51.762;8.564;2023-05-01T08:34:58;14.10;93.20
15231;DHT22;32569;51.762;8.564;2023-05-01T08:37:25;14.20;93.30
15231;DHT22;32569;51.762;8.564;2023-05-01T08:39:53;14.30;93.50
15231;DHT22;32569;51.762;8.564;2023-05-01T08:42:20;14.40;93.10
15231;DHT22;32569;51.762;8.564;2023-05-01T08:44:48;14.50;92.80
15231;DHT22;32569;51.762;8.564;2023-05-01T08:47:16;14.60;92.90
15231;DHT22;32569;51.762;8.564;2023-05-01T08:49:44;14.70;92.70
15231;DHT22;32569;51.762;8.564;2023-05-01T08:52:12;14.70;92.70
15231;DHT22;32569;51.762;8.564;2023-05-01T08:54:41;14.80;93.10
15231;DHT22;32569;51.762;8.564;2023-05-01T08:57:11;14.80;92.40
15231;DHT22;32569;51.762;8.564;2023-05-01T08:59:38;14.90;93.20
15231;DHT22;32569;51.762;8.564;2023-05-01T09:02:06;15.00;93.00
15231;DHT22;32569;51.762;8.564;2023-05-01T09:04:34;15.00;92.70
15231;DHT22;32569;51.762;8.564;2023-05-01T09:07:02;15.10;92.40
15231;DHT22;32569;51.762;8.564;2023-05-01T09:09:29;15.10;92.50
15231;DHT22;32569;51.762;8.564;2023-05-01T09:11:59;15.00;92.20
15231;DHT22;32569;51.762;8.564;2023-05-01T09:14:30;15.10;92.80
15231;DHT22;32569;51.762;8.564;2023-05-01T09:16:57;15.10;92.70
15231;DHT22;32569;51.762;8.564;2023-05-01T09:19:24;15.30;92.50
15231;DHT22;32569;51.762;8.564;2023-05-01T09:21:52;15.30;92.60
15231;DHT22;32569;51.762;8.564;2023-05-01T09:24:22;15.40;92.00
15231;DHT22;32569;51.762;8.564;2023-05-01T09:26:49;15.30;92.20
15231;DHT22;32569;51.762;8.564;2023-05-01T09:29:36;15.40;92.30
15231;DHT22;32569;51.762;8.564;2023-05-01T09:32:12;15.40;91.40
15231;DHT22;32569;51.762;8.564;2023-05-01T09:34:40;15.50;92.40
15231;DHT22;32569;51.762;8.564;2023-05-01T09:37:09;15.70;92.10
15231;DHT22;32569;51.762;8.564;2023-05-01T09:39:37;15.70;92.10
15231;DHT22;32569;51.762;8.564;2023-05-01T09:42:03;15.60;91.90
15231;DHT22;32569;51.762;8.564;2023-05-01T09:44:39;15.60;92.20
15231;DHT22;32569;51.762;8.564;2023-05-01T09:47:06;15.60;91.60
15231;DHT22;32569;51.762;8.564;2023-05-01T09:49:43;15.50;91.60
15231;DHT22;32569;51.762;8.564;2023-05-01T09:52:11;15.50;91.90
15231;DHT22;32569;51.762;8.564;2023-05-01T09:54:39;15.50;91.50
15231;DHT22;32569;51.762;8.564;2023-05-01T09:57:06;15.50;91.80
15231;DHT22;32569;51.762;8.564;2023-05-01T09:59:34;15.50;91.80
15231;DHT22;32569;51.762;8.564;2023-05-01T10:02:00;15.70;91.20
15231;DHT22;32569;51.762;8.564;2023-05-01T10:04:30;15.70;91.50
15231;DHT22;32569;51.762;8.564;2023-05-01T10:06:59;15.90;91.30
15231;DHT22;32569;51.762;8.564;2023-05-01T10:09:35;16.00;91.00
15231;DHT22;32569;51.762;8.564;2023-05-01T10:12:02;16.10;90.70
15231;DHT22;32569;51.762;8.564;2023-05-01T10:14:29;16.10;90.90
15231;DHT22;32569;51.762;8.564;2023-05-01T10:16:59;16.20;91.10
15231;DHT22;32569;51.762;8.564;2023-05-01T10:19:27;16.30;91.30
15231;DHT22;32569;51.762;8.564;2023-05-01T10:21:53;16.40;91.60
15231;DHT22;32569;51.762;8.564;2023-05-01T10:24:20;16.40;91.20
15231;DHT22;32569;51.762;8.564;2023-05-01T10:26:48;16.40;91.00
15231;DHT22;32569;51.762;8.564;2023-05-01T10:29:15;16.60;90.90
15231;DHT22;32569;51.762;8.564;2023-05-01T10:31:43;16.70;90.90
15231;DHT22;32569;51.762;8.564;2023-05-01T10:34:15;16.90;90.80
15231;DHT22;32569;51.762;8.564;2023-05-01T10:36:46;17.10;90.90
15231;DHT22;32569;51.762;8.564;2023-05-01T10:39:29;17.40;90.30
15231;DHT22;32569;51.762;8.564;2023-05-01T10:42:03;17.50;89.50
15231;DHT22;32569;51.762;8.564;2023-05-01T10:44:31;17.70;88.00
15231;DHT22;32569;51.762;8.564;2023-05-01T10:46:59;17.80;87.40
15231;DHT22;32569;51.762;8.564;2023-05-01T10:50:04;17.90;89.20
15231;DHT22;32569;51.762;8.564;2023-05-01T10:53:15;17.80;86.20
15231;DHT22;32569;51.762;8.564;2023-05-01T10:55:43;17.90;88.30
15231;DHT22;32569;51.762;8.564;2023-05-01T10:58:10;17.90;86.70
15231;DHT22;32569;51.762;8.564;2023-05-01T11:00:37;17.70;85.90
15231;DHT22;32569;51.762;8.564;2023-05-01T11:06:10;17.80;86.10
15231;DHT22;32569;51.762;8.564;2023-05-01T11:08:38;17.80;86.20
15231;DHT22;32569;51.762;8.564;2023-05-01T11:14:09;17.80;85.30
15231;DHT22;32569;51.762;8.564;2023-05-01T11:16:43;17.60;85.00
15231;DHT22;32569;51.762;8.564;2023-05-01T11:22:11;17.80;88.10
15231;DHT22;32569;51.762;8.564;2023-05-01T11:24:40;17.90;86.90
15231;DHT22;32569;51.762;8.564;2023-05-01T11:27:07;18.10;85.70
15231;DHT22;32569;51.762;8.564;2023-05-01T11:29:34;18.30;84.30
15231;DHT22;32569;51.762;8.564;2023-05-01T11:32:02;18.50;85.00
15231;DHT22;32569;51.762;8.564;2023-05-01T11:34:34;18.60;84.00
15231;DHT22;32569;51.762;8.564;2023-05-01T11:37:01;18.50;83.60
15231;DHT22;32569;51.762;8.564;2023-05-01T11:39:28;18.60;84.50
15231;DHT22;32569;51.762;8.564;2023-05-01T11:42:06;18.60;84.50
15231;DHT22;32569;51.762;8.564;2023-05-01T11:44:33;18.50;83.00
15231;DHT22;32569;51.762;8.564;2023-05-01T11:47:00;18.60;81.80
15231;DHT22;32569;51.762;8.564;2023-05-01T11:49:27;18.50;82.20
15231;DHT22;32569;51.762;8.564;2023-05-01T11:51:57;18.50;82.30
15231;DHT22;32569;51.762;8.564;2023-05-01T11:54:25;18.60;82.50
15231;DHT22;32569;51.762;8.564;2023-05-01T11:56:57;18.40;81.80
15231;DHT22;32569;51.762;8.564;2023-05-01T11:59:25;18.50;83.80
15231;DHT22;32569;51.762;8.564;2023-05-01T12:01:52;18.60;83.10
15231;DHT22;32569;51.762;8.564;2023-05-01T12:04:23;18.70;83.20
15231;DHT22;32569;51.762;8.564;2023-05-01T12:06:50;18.80;83.70
15231;DHT22;32569;51.762;8.564;2023-05-01T12:09:19;18.80;83.40
15231;DHT22;32569;51.762;8.564;2023-05-01T12:11:47;18.90;84.30
15231;DHT22;32569;51.762;8.564;2023-05-01T12:14:14;18.90;83.20
15231;DHT22;32569;51.762;8.564;2023-05-01T12:16:43;18.90;83.90
15231;DHT22;32569;51.762;8.564;2023-05-01T12:19:12;19.10;83.70
15231;DHT22;32569;51.762;8.564;2023-05-01T12:21:39;19.20;82.00
15231;DHT22;32569;51.762;8.564;2023-05-01T12:24:10;19.20;83.40
15231;DHT22;32569;51.762;8.564;2023-05-01T12:26:38;19.40;82.70
15231;DHT22;32569;51.762;8.564;2023-05-01T12:29:08;19.40;82.70
15231;DHT22;32569;51.762;8.564;2023-05-01T12:31:36;19.30;81.90
15231;DHT22;32569;51.762;8.564;2023-05-01T12:34:05;19.30;83.10
15231;DHT22;32569;51.762;8.564;2023-05-01T12:36:33;19.40;80.80
15231;DHT22;32569;51.762;8.564;2023-05-01T12:39:02;19.30;81.80
15231;DHT22;32569;51.762;8.564;2023-05-01T12:41:36;19.40;80.10
15231;DHT22;32569;51.762;8.564;2023-05-01T12:44:15;19.50;80.80
15231;DHT22;32569;51.762;8.564;2023-05-01T12:46:43;19.50;78.50
15231;DHT22;32569;51.762;8.564;2023-05-01T12:49:16;19.60;80.20
15231;DHT22;32569;51.762;8.564;2023-05-01T12:51:46;19.60;80.10
15231;DHT22;32569;51.762;8.564;2023-05-01T12:54:18;19.60;82.80
15231;DHT22;32569;51.762;8.564;2023-05-01T12:56:45;19.30;78.10
15231;DHT22;32569;51.762;8.564;2023-05-01T12:59:19;19.00;78.00
15231;DHT22;32569;51.762;8.564;2023-05-01T13:01:47;18.80;78.80
15231;DHT22;32569;51.762;8.564;2023-05-01T13:04:20;19.00;80.10
15231;DHT22;32569;51.762;8.564;2023-05-01T13:06:47;19.10;79.80
15231;DHT22;32569;51.762;8.564;2023-05-01T13:09:14;19.20;80.70
15231;DHT22;32569;51.762;8.564;2023-05-01T13:11:42;19.30;79.70
15231;DHT22;32569;51.762;8.564;2023-05-01T13:14:09;19.20;79.50
15231;DHT22;32569;51.762;8.564;2023-05-01T13:16:43;19.10;79.40
15231;DHT22;32569;51.762;8.564;2023-05-01T13:19:10;19.00;77.20
15231;DHT22;32569;51.762;8.564;2023-05-01T13:21:47;19.10;77.40
15231;DHT22;32569;51.762;8.564;2023-05-01T13:24:14;18.90;77.40
15231;DHT22;32569;51.762;8.564;2023-05-01T13:26:41;18.90;77.00
15231;DHT22;32569;51.762;8.564;2023-05-01T13:29:13;18.70;77.90
15231;DHT22;32569;51.762;8.564;2023-05-01T13:31:42;18.70;78.20
15231;DHT22;32569;51.762;8.564;2023-05-01T13:34:09;18.70;80.30
15231;DHT22;32569;51.762;8.564;2023-05-01T13:36:38;18.70;79.10
15231;DHT22;32569;51.762;8.564;2023-05-01T13:39:09;18.60;79.00
15231;DHT22;32569;51.762;8.564;2023-05-01T13:41:41;18.70;80.40
15231;DHT22;32569;51.762;8.564;2023-05-01T13:44:08;18.70;81.10
15231;DHT22;32569;51.762;8.564;2023-05-01T13:46:35;18.90;82.40
15231;DHT22;32569;51.762;8.564;2023-05-01T13:49:02;19.10;82.30
15231;DHT22;32569;51.762;8.564;2023-05-01T13:51:40;19.10;76.30
15231;DHT22;32569;51.762;8.564;2023-05-01T13:54:09;19.00;76.60
15231;DHT22;32569;51.762;8.564;2023-05-01T13:56:40;18.90;78.30
15231;DHT22;32569;51.762;8.564;2023-05-01T13:59:07;19.00;74.80
15231;DHT22;32569;51.762;8.564;2023-05-01T14:01:39;19.00;76.80
15231;DHT22;32569;51.762;8.564;2023-05-01T14:04:14;19.10;77.50
15231;DHT22;32569;51.762;8.564;2023-05-01T14:06:41;19.20;77.80
15231;DHT22;32569;51.762;8.564;2023-05-01T14:09:10;19.20;78.50
15231;DHT22;32569;51.762;8.564;2023-05-01T14:11:42;19.20;78.80
15231;DHT22;32569;51.762;8.564;2023-05-01T14:14:11;19.10;75.90
15231;DHT22;32569;51.762;8.564;2023-05-01T14:16:40;19.10;74.90
15231;DHT22;32569;51.762;8.564;2023-05-01T14:19:08;18.90;76.00
15231;DHT22;32569;51.762;8.564;2023-05-01T14:21:39;18.90;76.60
15231;DHT22;32569;51.762;8.564;2023-05-01T14:24:07;18.90;78.70
15231;DHT22;32569;51.762;8.564;2023-05-01T14:26:38;18.90;78.40
15231;DHT22;32569;51.762;8.564;2023-05-01T14:29:05;18.90;76.80
15231;DHT22;32569;51.762;8.564;2023-05-01T14:31:36;19.00;76.50
15231;DHT22;32569;51.762;8.564;2023-05-01T14:34:04;19.00;76.50
15231;DHT22;32569;51.762;8.564;2023-05-01T14:36:31;19.10;75.40
15231;DHT22;32569;51.762;8.564;2023-05-01T14:38:59;19.10;77.20
15231;DHT22;32569;51.762;8.564;2023-05-01T14:41:26;19.10;76.40
15231;DHT22;32569;51.762;8.564;2023-05-01T14:43:55;19.10;76.90
15231;DHT22;32569;51.762;8.564;2023-05-01T14:46:29;19.10;77.10
15231;DHT22;32569;51.762;8.564;2023-05-01T14:48:56;19.10;77.50
15231;DHT22;32569;51.762;8.564;2023-05-01T14:51:23;19.20;77.60
15231;DHT22;32569;51.762;8.564;2023-05-01T14:53:53;19.20;77.80
15231;DHT22;32569;51.762;8.564;2023-05-01T14:56:20;19.30;77.90
15231;DHT22;32569;51.762;8.564;2023-05-01T14:58:50;19.40;77.30
15231;DHT22;32569;51.762;8.564;2023-05-01T15:01:18;19.40;77.50
15231;DHT22;32569;51.762;8.564;2023-05-01T15:03:48;19.50;78.10
15231;DHT22;32569;51.762;8.564;2023-05-01T15:06:17;19.60;77.40
15231;DHT22;32569;51.762;8.564;2023-05-01T15:08:47;19.60;76.70
15231;DHT22;32569;51.762;8.564;2023-05-01T15:11:17;19.70;76.10
15231;DHT22;32569;51.762;8.564;2023-05-01T15:13:45;19.70;78.00
15231;DHT22;32569;51.762;8.564;2023-05-01T15:16:13;19.70;77.00
15231;DHT22;32569;51.762;8.564;2023-05-01T15:18:41;19.60;77.00
15231;DHT22;32569;51.762;8.564;2023-05-01T15:21:08;19.70;77.40
15231;DHT22;32569;51.762;8.564;2023-05-01T15:23:35;19.70;78.70
15231;DHT22;32569;51.762;8.564;2023-05-01T15:26:02;19.60;76.40
15231;DHT22;32569;51.762;8.564;2023-05-01T15:28:29;19.40;77.20
15231;DHT22;32569;51.762;8.564;2023-05-01T15:30:58;19.40;78.10
15231;DHT22;32569;51.762;8.564;2023-05-01T15:33:25;19.40;80.20
15231;DHT22;32569;51.762;8.564;2023-05-01T15:35:53;19.50;78.20
15231;DHT22;32569;51.762;8.564;2023-05-01T15:38:22;19.50;79.50
15231;DHT22;32569;51.762;8.564;2023-05-01T15:40:50;19.60;79.80
15231;DHT22;32569;51.762;8.564;2023-05-01T15:43:22;19.70;79.40
15231;DHT22;32569;51.762;8.564;2023-05-01T15:45:50;19.60;79.40
15231;DHT22;32569;51.762;8.564;2023-05-01T15:48:17;19.70;80.20
15231;DHT22;32569;51.762;8.564;2023-05-01T15:50:43;19.70;79.20
15231;DHT22;32569;51.762;8.564;2023-05-01T15:53:11;19.80;79.60
15231;DHT22;32569;51.762;8.564;2023-05-01T15:55:38;19.90;80.50
15231;DHT22;32569;51.762;8.564;2023-05-01T15:58:05;20.00;79.00
15231;DHT22;32569;51.762;8.564;2023-05-01T16:00:32;20.00;80.70